Time;durP1;ratioP1;P1;durP2;ratioP2;P2;SDS_P1;SDS_P2;PMS_P1;PMS_P2;Temp;Humidity;BMP_temperature;BMP_pressure;BME280_temperature;BME280_humidity;BME280_pressure;Samples;Min_cycle;Max_cycle;Signal;HPM_P1;HPM_P2
2022/12/18 00:02:07;;;;;;;1.65;1.48;;;;;;;1.35;58.59;101290.25;4348528;32;33801;-90
2022/12/18 00:04:36;;;;;;;3.83;3.30;;;;;;;1.30;58.74;101295.34;4339196;32;32363;-90
2022/12/18 00:07:05;;;;;;;1.12;1.02;;;;;;;1.06;59.22;101308.78;4339785;32;32179;-89
2022/12/18 00:09:33;;;;;;;1.30;1.25;;;;;;;1.54;58.01;101307.94;4346699;33;33457;-93
2022/12/18 00:12:25;;;;;;;0.47;0.47;;;;;;;1.52;57.93;101313.12;4337995;33;32442;-91
2022/12/18 00:15:05;;;;;;;1.05;0.98;;;;;;;1.18;58.06;101319.41;4314427;33;32038;-92
2022/12/18 00:17:57;;;;;;;0.90;0.90;;;;;;;1.50;57.31;101325.22;4337506;33;32928;-92
2022/12/18 00:20:38;;;;;;;0.40;0.40;;;;;;;1.27;58.62;101332.59;4312484;33;33035;-92
2022/12/18 00:23:20;;;;;;;0.15;0.15;;;;;;;1.14;58.92;101332.34;4355707;32;34355;-93
2022/12/18 00:26:18;;;;;;;2.58;2.40;;;;;;;1.16;58.75;101336.72;4347509;33;32125;-94
2022/12/18 00:29:13;;;;;;;4.07;1.80;;;;;;;1.15;58.97;101339.31;4337972;33;32309;-91
2022/12/18 00:32:05;;;;;;;0.55;0.55;;;;;;;1.08;58.85;101346.09;4294141;33;33168;-89
2022/12/18 00:34:39;;;;;;;4.82;0.85;;;;;;;1.31;58.11;101351.75;4309850;33;33519;-89
2022/12/18 00:37:21;;;;;;;0.40;0.40;;;;;;;0.87;59.66;101348.28;4345551;32;33402;-89
2022/12/18 00:39:54;;;;;;;1.48;1.40;;;;;;;1.12;58.95;101353.13;4336921;33;33360;-89
2022/12/18 00:42:57;;;;;;;9.07;3.58;;;;;;;0.60;60.16;101359.84;4317952;33;34295;-90
2022/12/18 00:45:58;;;;;;;2.27;2.07;;;;;;;1.16;59.06;101354.94;4343151;33;32613;-90
2022/12/18 00:48:42;;;;;;;1.02;1.02;;;;;;;1.38;57.87;101358.84;4339376;33;32214;-90
2022/12/18 00:51:37;;;;;;;0.88;0.88;;;;;;;1.20;58.79;101361.09;4326347;33;33919;-90
2022/12/18 00:54:18;;;;;;;1.65;1.42;;;;;;;1.02;59.18;101366.81;4355369;32;32824;-90
2022/12/18 00:57:10;;;;;;;2.05;1.75;;;;;;;0.36;61.29;101380.97;4365113;32;33100;-90
2022/12/18 00:59:49;;;;;;;1.95;1.85;;;;;;;0.64;60.91;101381.59;4353660;32;32165;-92
2022/12/18 01:02:41;;;;;;;4.55;3.40;;;;;;;1.13;59.08;101377.41;4341593;33;33027;-91
2022/12/18 01:05:20;;;;;;;0.70;0.70;;;;;;;0.85;59.85;101375.97;4343336;33;32896;-92
2022/12/18 01:08:03;;;;;;;2.45;2.30;;;;;;;0.50;60.97;101386.50;4338843;33;32456;-91
2022/12/18 01:10:45;;;;;;;1.23;1.20;;;;;;;0.68;60.87;101394.69;4327261;33;32301;-92
2022/12/18 01:13:41;;;;;;;1.37;1.37;;;;;;;1.05;59.59;101389.41;4353075;32;32689;-91
2022/12/18 01:16:12;;;;;;;1.10;1.10;;;;;;;0.77;60.00;101407.03;4319390;33;33112;-90
2022/12/18 01:18:45;;;;;;;2.05;1.45;;;;;;;0.87;60.29;101410.69;4331071;33;32801;-91
2022/12/18 01:21:15;;;;;;;1.37;1.37;;;;;;;1.35;58.60;101400.41;4344579;32;32844;-90
2022/12/18 01:23:52;;;;;;;0.37;0.37;;;;;;;1.17;58.81;101410.44;4346174;33;33073;-90
2022/12/18 01:26:24;;;;;;;1.20;1.20;;;;;;;0.82;59.90;101412.31;4345240;33;33101;-89
2022/12/18 01:28:54;;;;;;;0.57;0.57;;;;;;;1.02;58.83;101424.03;4321007;33;33872;-90
2022/12/18 01:31:26;;;;;;;3.87;2.08;;;;;;;1.13;58.27;101414.72;4317193;33;32337;-90
2022/12/18 01:33:55;;;;;;;2.65;2.50;;;;;;;1.20;58.26;101410.53;4332924;33;32797;-89
2022/12/18 01:36:34;;;;;;;1.52;1.42;;;;;;;1.17;58.29;101421.72;4343333;33;33172;-90
2022/12/18 01:39:06;;;;;;;2.53;2.33;;;;;;;1.21;58.23;101422.69;4344732;33;32753;-90
2022/12/18 01:44:59;;;;;;;2.00;1.80;;;;;;;1.16;58.20;101425.19;4343824;33;32798;-90
2022/12/18 01:47:32;;;;;;;1.98;1.77;;;;;;;0.90;59.00;101436.75;4343966;33;32796;-90
2022/12/18 01:50:20;;;;;;;8.48;5.07;;;;;;;0.99;58.78;101436.94;4332398;33;32560;-90
2022/12/18 01:52:51;;;;;;;2.97;1.55;;;;;;;1.37;57.83;101431.66;4344161;33;32709;-91
2022/12/18 01:55:24;;;;;;;1.67;1.62;;;;;;;1.26;58.16;101440.13;4343732;33;32991;-89
2022/12/18 01:57:55;;;;;;;6.15;2.10;;;;;;;1.17;58.36;101445.16;4332336;33;33387;-90
2022/12/18 02:00:27;;;;;;;3.47;2.37;;;;;;;1.10;58.47;101438.09;4320028;33;33089;-90
2022/12/18 02:02:56;;;;;;;2.12;2.03;;;;;;;1.35;57.76;101426.44;4332569;33;32100;-92
2022/12/18 02:06:01;;;;;;;1.08;1.05;;;;;;;1.30;57.86;101437.59;4338851;32;33230;-92
2022/12/18 02:09:12;;;;;;;1.05;1.05;;;;;;;1.12;58.53;101443.31;4330874;33;32824;-89
2022/12/18 02:12:52;;;;;;;5.95;1.92;;;;;;;1.35;57.88;101446.38;4316440;33;33028;-90
2022/12/18 02:16:02;;;;;;;1.00;1.00;;;;;;;1.31;58.15;101449.78;4334565;32;31987;-90
2022/12/18 02:18:46;;;;;;;3.35;3.03;;;;;;;1.22;58.12;101461.72;4344202;32;32720;-90
2022/12/18 02:21:46;;;;;;;2.57;1.73;;;;;;;1.33;58.06;101450.66;4331726;32;32014;-92
2022/12/18 02:24:59;;;;;;;0.75;0.75;;;;;;;1.12;58.55;101458.91;4340742;33;33565;-90
2022/12/18 02:27:30;;;;;;;1.02;0.95;;;;;;;1.10;58.30;101458.91;4335173;33;33089;-90
2022/12/18 02:30:00;;;;;;;2.37;2.27;;;;;;;1.07;58.21;101469.22;4323494;33;32428;-91
2022/12/18 02:32:34;;;;;;;2.72;2.58;;;;;;;0.98;58.45;101474.22;4347682;32;33153;-91
2022/12/18 02:35:06;;;;;;;1.52;1.52;;;;;;;0.94;58.56;101481.06;4334622;33;33200;-91
2022/12/18 02:37:36;;;;;;;1.20;1.15;;;;;;;0.98;58.29;101475.09;4323071;33;31807;-90
2022/12/18 02:40:06;;;;;;;2.10;1.25;;;;;;;1.08;57.79;101473.56;4331134;33;33626;-91
2022/12/18 02:42:34;;;;;;;2.05;1.95;;;;;;;1.14;57.76;101481.53;4347221;32;33378;-91
2022/12/18 02:45:05;;;;;;;3.50;3.30;;;;;;;1.09;58.18;101485.72;4338366;32;34292;-91
2022/12/18 02:47:43;;;;;;;2.22;2.12;;;;;;;0.95;57.87;101484.53;4316520;33;32642;-91
2022/12/18 02:50:38;;;;;;;2.05;1.15;;;;;;;1.02;57.88;101486.47;4316539;33;33978;-93
2022/12/18 02:53:37;;;;;;;0.22;0.22;;;;;;;1.11;57.75;101489.25;4343632;33;33018;-93
2022/12/18 02:56:46;;;;;;;2.83;1.30;;;;;;;0.93;58.03;101488.84;4370758;32;32489;-92
2022/12/18 02:59:41;;;;;;;1.35;1.30;;;;;;;1.13;57.80;101492.75;4327319;33;33236;-91
2022/12/18 03:03:05;;;;;;;2.78;2.30;;;;;;;1.17;57.52;101488.50;4311717;33;33049;-91
2022/12/18 03:06:02;;;;;;;0.90;0.90;;;;;;;1.18;57.44;101501.53;4331351;33;34117;-91
2022/12/18 03:09:17;;;;;;;3.53;2.90;;;;;;;1.17;57.38;101505.00;4347669;32;32285;-91
2022/12/18 03:14:43;;;;;;;6.03;3.15;;;;;;;0.94;58.09;101511.41;4347986;32;33504;-90
2022/12/18 03:17:16;;;;;;;2.35;2.25;;;;;;;1.10;57.60;101512.66;4347126;33;32914;-90
2022/12/18 03:19:46;;;;;;;0.15;0.15;;;;;;;0.91;57.88;101513.97;4345500;32;32726;-90
2022/12/18 03:22:16;;;;;;;1.17;1.17;;;;;;;0.89;57.62;101524.31;4333055;33;32779;-90
2022/12/18 03:24:45;;;;;;;1.92;1.83;;;;;;;0.90;57.78;101522.56;4332477;33;32416;-90
2022/12/18 03:27:18;;;;;;;3.40;3.15;;;;;;;0.99;57.36;101523.66;4346207;33;33545;-90
2022/12/18 03:29:50;;;;;;;0.73;0.73;;;;;;;0.92;57.48;101523.50;4341145;32;33289;-90
2022/12/18 03:32:25;;;;;;;0.20;0.20;;;;;;;1.02;57.20;101533.28;4352884;32;32322;-90
2022/12/18 03:34:58;;;;;;;4.47;2.37;;;;;;;1.01;57.22;101534.13;4328898;33;34347;-90
2022/12/18 03:37:29;;;;;;;1.95;1.77;;;;;;;0.91;57.30;101535.63;4347324;32;33242;-90
2022/12/18 03:39:57;;;;;;;0.32;0.32;;;;;;;0.87;57.22;101544.22;4320951;33;32929;-90
2022/12/18 03:42:33;;;;;;;1.35;0.65;;;;;;;0.82;57.14;101557.94;4320951;33;32892;-90
2022/12/18 03:45:37;;;;;;;0.50;0.50;;;;;;;0.76;57.01;101559.56;4316527;33;32887;-90
2022/12/18 03:48:20;;;;;;;0.62;0.62;;;;;;;0.80;57.15;101554.41;4322012;33;33589;-90
2022/12/18 03:50:58;;;;;;;2.42;2.22;;;;;;;0.62;57.79;101560.03;4354173;32;33917;-89
2022/12/18 03:53:45;;;;;;;0.95;0.95;;;;;;;0.81;57.18;101553.56;4320920;33;31709;-92
2022/12/18 03:56:57;;;;;;;0.85;0.85;;;;;;;0.80;57.20;101564.81;4371842;32;33017;-91
2022/12/18 03:59:57;;;;;;;1.17;1.15;;;;;;;0.77;57.07;101566.50;4352017;32;34440;-91
2022/12/18 04:02:43;;;;;;;1.50;1.12;;;;;;;0.62;57.60;101558.34;4356636;32;32692;-91
2022/12/18 04:05:36;;;;;;;0.22;0.22;;;;;;;0.55;57.57;101558.13;4340756;32;32095;-92
2022/12/18 04:08:29;;;;;;;2.00;1.90;;;;;;;0.63;57.33;101564.41;4350631;32;32590;-93
2022/12/18 04:11:22;;;;;;;1.15;1.15;;;;;;;0.62;57.48;101566.16;4325246;33;32819;-92
2022/12/18 04:14:13;;;;;;;2.00;1.65;;;;;;;0.59;57.69;101571.25;4355394;32;33135;-92
2022/12/18 04:17:06;;;;;;;6.70;2.83;;;;;;;0.59;57.86;101576.44;4322518;33;32156;-91
2022/12/18 04:19:48;;;;;;;2.42;1.40;;;;;;;0.47;57.64;101579.59;4357340;32;34307;-89
2022/12/18 04:22:17;;;;;;;0.95;0.95;;;;;;;0.37;58.01;101568.94;4340972;33;33279;-89
2022/12/18 04:24:47;;;;;;;0.65;0.65;;;;;;;0.44;57.83;101574.34;4329165;33;32994;-89
2022/12/18 04:27:16;;;;;;;2.37;1.58;;;;;;;0.42;57.92;101583.81;4335126;33;32615;-89
2022/12/18 04:29:48;;;;;;;1.70;1.60;;;;;;;0.56;57.76;101578.97;4335618;33;33118;-89
2022/12/18 04:32:18;;;;;;;4.07;3.65;;;;;;;0.71;57.54;101584.56;4341478;32;33859;-89
2022/12/18 04:34:49;;;;;;;0.28;0.28;;;;;;;0.69;57.61;101582.75;4342232;33;33205;-89
2022/12/18 04:37:18;;;;;;;2.15;1.95;;;;;;;0.52;58.02;101590.13;4327147;33;32472;-89
2022/12/18 04:39:48;;;;;;;2.08;1.95;;;;;;;0.48;57.78;101593.50;4328052;33;33927;-89
2022/12/18 04:42:20;;;;;;;2.03;1.92;;;;;;;0.49;57.66;101600.47;4354086;32;33221;-90
2022/12/18 04:45:04;;;;;;;2.62;1.30;;;;;;;0.61;57.48;101599.87;4293394;33;31982;-91
2022/12/18 04:47:34;;;;;;;0.75;0.75;;;;;;;0.66;57.43;101606.06;4330536;33;32237;-90
2022/12/18 04:50:15;;;;;;;2.03;1.35;;;;;;;0.54;57.99;101609.25;4344841;33;33332;-90
2022/12/18 04:53:15;;;;;;;4.68;3.60;;;;;;;0.70;57.39;101606.19;4349284;32;32711;-90
2022/12/18 04:56:05;;;;;;;0.37;0.37;;;;;;;0.57;57.62;101618.81;4329108;33;32486;-92
2022/12/18 04:58:56;;;;;;;1.75;1.65;;;;;;;0.42;57.78;101624.50;4354495;32;33445;-91
2022/12/18 05:02:30;;;;;;;1.58;1.52;;;;;;;0.34;57.97;101633.84;4337266;33;32989;-91
2022/12/18 05:05:25;;;;;;;2.15;2.05;;;;;;;0.14;58.27;101634.16;4349592;32;34427;-91
2022/12/18 05:08:09;;;;;;;0.08;0.08;;;;;;;0.15;58.43;101629.84;4341897;32;32839;-91
2022/12/18 05:11:09;;;;;;;1.15;1.15;;;;;;;0.17;58.22;101639.44;4366259;32;34186;-91
2022/12/18 05:13:50;;;;;;;2.35;2.15;;;;;;;0.31;57.89;101632.03;4352633;32;32616;-90
2022/12/18 05:16:44;;;;;;;1.12;1.12;;;;;;;0.29;58.01;101638.03;4332317;33;32852;-90
2022/12/18 05:19:24;;;;;;;1.95;0.43;;;;;;;0.11;58.44;101634.06;4312264;33;33345;-90
2022/12/18 05:21:52;;;;;;;0.82;0.82;;;;;;;-0.01;58.26;101633.72;4311235;33;32085;-91
2022/12/18 05:24:40;;;;;;;0.88;0.88;;;;;;;0.00;58.22;101640.69;4309847;33;32842;-92
2022/12/18 05:27:45;;;;;;;1.45;1.42;;;;;;;0.01;58.10;101646.75;4319034;33;33813;-92
2022/12/18 05:30:16;;;;;;;3.40;1.85;;;;;;;0.02;58.05;101652.00;4319252;33;33028;-91
2022/12/18 05:32:56;;;;;;;1.95;1.85;;;;;;;-0.03;58.06;101651.84;4307975;33;32050;-91
2022/12/18 05:35:50;;;;;;;0.52;0.52;;;;;;;-0.33;58.33;101661.34;4318997;33;32462;-91
2022/12/18 05:38:24;;;;;;;1.60;1.58;;;;;;;-0.23;58.12;101652.12;4293599;33;33240;-91
2022/12/18 05:40:54;;;;;;;0.98;0.98;;;;;;;-0.14;58.03;101666.25;4303548;33;33450;-91
2022/12/18 05:43:28;;;;;;;2.55;2.35;;;;;;;-0.08;57.83;101669.03;4316281;33;32127;-91
2022/12/18 05:46:20;;;;;;;0.60;0.60;;;;;;;-0.11;57.98;101668.03;4307232;33;32643;-90
2022/12/18 05:49:06;;;;;;;2.72;2.40;;;;;;;-0.11;57.67;101668.03;4320758;33;31782;-91
2022/12/18 05:51:36;;;;;;;1.75;1.67;;;;;;;-0.22;58.25;101675.53;4307715;33;33537;-90
2022/12/18 05:57:22;;;;;;;2.12;2.00;;;;;;;-0.28;58.16;101676.22;4309070;33;32762;-91
2022/12/18 06:00:23;;;;;;;9.73;2.72;;;;;;;-0.26;58.16;101679.72;4320256;33;33250;-91
2022/12/18 06:03:29;;;;;;;0.45;0.45;;;;;;;-0.18;57.78;101682.56;4348732;32;32918;-90
2022/12/18 06:06:02;;;;;;;0.90;0.90;;;;;;;-0.28;58.30;101690.91;4359854;32;33879;-90
2022/12/18 06:08:53;;;;;;;2.10;1.98;;;;;;;-0.23;58.33;101685.88;4341175;32;32658;-91
2022/12/18 06:11:43;;;;;;;0.50;0.50;;;;;;;-0.33;58.64;101688.19;4352971;32;32664;-90
2022/12/18 06:14:31;;;;;;;1.02;1.02;;;;;;;-0.55;58.71;101685.75;4354500;32;33206;-91
2022/12/18 06:17:16;;;;;;;0.40;0.40;;;;;;;-0.30;58.49;101690.84;4311641;33;32689;-91
2022/12/18 06:19:58;;;;;;;4.40;3.62;;;;;;;-0.27;58.26;101690.94;4321417;33;32696;-91
2022/12/18 06:22:30;;;;;;;2.85;2.33;;;;;;;-0.42;58.81;101703.47;4312654;33;34139;-91
2022/12/18 06:25:17;;;;;;;1.58;1.48;;;;;;;-0.28;58.32;101702.19;4320560;33;32305;-91
2022/12/18 06:28:26;;;;;;;0.80;0.80;;;;;;;-0.49;58.90;101706.69;4311142;33;31586;-91
2022/12/18 06:31:20;;;;;;;4.87;2.72;;;;;;;-0.32;58.62;101715.91;4320119;33;33790;-91
2022/12/18 06:34:04;;;;;;;1.52;1.42;;;;;;;-0.34;58.32;101717.53;4337381;33;32873;-91
2022/12/18 06:37:09;;;;;;;0.90;0.90;;;;;;;-0.36;58.43;101724.41;4325263;33;33552;-91
2022/12/18 06:40:03;;;;;;;1.52;1.50;;;;;;;-0.33;58.45;101726.25;4358827;32;32698;-89
2022/12/18 06:42:34;;;;;;;2.12;2.03;;;;;;;-0.29;58.15;101731.53;4376743;32;33088;-90
2022/12/18 06:45:21;;;;;;;2.08;1.98;;;;;;;-0.39;58.41;101739.00;4342759;33;33249;-90
2022/12/18 06:48:10;;;;;;;3.27;2.90;;;;;;;-0.31;58.24;101743.59;4350004;32;32380;-91
2022/12/18 06:50:57;;;;;;;3.03;2.22;;;;;;;-0.34;58.10;101740.91;4312142;33;33102;-90
2022/12/18 06:53:52;;;;;;;3.05;2.45;;;;;;;-0.39;58.15;101739.00;4338791;32;34444;-89
2022/12/18 06:56:36;;;;;;;2.72;1.60;;;;;;;-0.26;57.97;101746.34;4348962;32;33570;-89
2022/12/18 06:59:26;;;;;;;2.45;2.03;;;;;;;-0.36;58.40;101755.56;4346614;32;32633;-90
2022/12/18 07:02:14;;;;;;;2.25;1.12;;;;;;;-0.60;59.47;101754.78;4359859;32;34053;-92
2022/12/18 07:05:10;;;;;;;0.75;0.65;;;;;;;-0.47;59.18;101762.13;4314895;33;33329;-91
2022/12/18 07:08:14;;;;;;;3.05;2.95;;;;;;;-0.38;58.93;101759.84;4339749;32;34025;-90
2022/12/18 07:10:45;;;;;;;1.83;1.08;;;;;;;-0.52;59.19;101761.09;4336864;33;32375;-90
2022/12/18 07:13:23;;;;;;;0.50;0.50;;;;;;;-0.49;59.28;101771.56;4336940;33;32387;-90
2022/12/18 07:16:10;;;;;;;2.65;2.15;;;;;;;-0.52;59.45;101781.84;4322091;33;34331;-91
2022/12/18 07:19:05;;;;;;;1.95;1.85;;;;;;;-0.40;59.23;101782.25;4317837;33;33116;-90
2022/12/18 07:21:55;;;;;;;0.75;0.75;;;;;;;-0.25;58.93;101779.25;4355084;32;34233;-91
2022/12/18 07:24:50;;;;;;;0.68;0.68;;;;;;;-0.17;58.74;101788.19;4339319;32;33977;-89
2022/12/18 07:27:35;;;;;;;1.05;1.05;;;;;;;-0.14;58.71;101796.06;4330267;33;31629;-89
2022/12/18 07:30:29;;;;;;;0.88;0.85;;;;;;;-0.19;58.94;101799.34;4329708;32;32399;-91
2022/12/18 07:33:02;;;;;;;7.47;1.98;;;;;;;-0.28;59.31;101808.62;4323663;33;33563;-91
2022/12/18 07:35:44;;;;;;;1.17;1.10;;;;;;;-0.04;59.19;101815.44;4331847;32;32280;-91
2022/12/18 07:38:34;;;;;;;0.28;0.28;;;;;;;0.01;59.33;101819.03;4317203;33;32712;-91
2022/12/18 07:41:10;;;;;;;4.00;3.72;;;;;;;0.03;59.30;101819.09;4336013;33;33001;-91
2022/12/18 07:44:06;;;;;;;3.97;3.67;;;;;;;0.16;59.12;101824.72;4328214;33;33886;-90
2022/12/18 07:46:53;;;;;;;1.05;1.05;;;;;;;0.34;58.76;101820.94;4339596;32;34025;-90
2022/12/18 07:49:26;;;;;;;0.20;0.20;;;;;;;0.48;58.12;101824.81;4363663;32;31717;-91
2022/12/18 07:51:59;;;;;;;1.48;1.37;;;;;;;0.25;59.10;101830.19;4362436;32;34122;-91
2022/12/18 07:54:48;;;;;;;1.27;1.17;;;;;;;0.41;58.94;101836.72;4332566;33;34222;-91
2022/12/18 07:57:33;;;;;;;2.17;2.05;;;;;;;0.45;58.66;101837.72;4323184;33;32157;-90
2022/12/18 08:00:26;;;;;;;2.60;2.50;;;;;;;0.48;58.56;101843.91;4304127;33;32103;-90
2022/12/18 08:03:19;;;;;;;1.48;1.42;;;;;;;0.51;58.79;101850.87;4334498;33;33893;-91
2022/12/18 08:06:06;;;;;;;3.45;3.25;;;;;;;0.60;58.52;101853.75;4340006;33;33117;-90
2022/12/18 08:08:51;;;;;;;1.33;1.33;;;;;;;0.59;58.78;101859.81;4317238;33;34164;-87
2022/12/18 08:11:20;;;;;;;2.90;2.22;;;;;;;0.69;58.83;101861.84;4343802;32;32997;-87
2022/12/18 08:13:50;;;;;;;5.45;3.92;;;;;;;0.79;58.90;101859.50;4334855;33;35019;-86
2022/12/18 08:16:24;;;;;;;3.85;1.12;;;;;;;1.03;58.20;101865.41;4347150;32;33270;-87
2022/12/18 08:18:55;;;;;;;1.70;1.60;;;;;;;0.99;58.48;101864.44;4331894;33;33085;-85
2022/12/18 08:21:33;;;;;;;4.10;3.78;;;;;;;1.09;58.22;101854.28;4336663;32;33064;-85
2022/12/18 08:24:04;;;;;;;8.98;2.17;;;;;;;1.02;58.79;101859.31;4335640;33;33587;-86
2022/12/18 08:26:39;;;;;;;3.33;3.12;;;;;;;1.07;58.35;101864.66;4326810;33;34544;-86
2022/12/18 08:29:14;;;;;;;2.80;2.67;;;;;;;1.08;58.81;101871.59;4333362;33;33064;-87
2022/12/18 08:31:59;;;;;;;7.53;4.68;;;;;;;1.16;57.82;101867.50;4332467;33;32673;-86
2022/12/18 08:34:38;;;;;;;5.18;1.75;;;;;;;1.05;58.03;101871.53;4341167;32;32941;-88
2022/12/18 08:37:07;;;;;;;1.90;1.73;;;;;;;1.17;57.89;101882.28;4341944;32;34290;-86
2022/12/18 08:39:39;;;;;;;4.35;2.03;;;;;;;1.17;57.50;101876.19;4341044;32;32439;-87
2022/12/18 08:45:01;;;;;;;3.80;3.60;;;;;;;1.25;58.21;101878.19;4338352;32;32558;-87
2022/12/18 08:47:39;;;;;;;1.67;1.58;;;;;;;1.30;57.59;101875.69;4339723;32;33373;-86
2022/12/18 08:50:18;;;;;;;3.83;0.93;;;;;;;1.95;55.25;101857.41;4322425;33;33425;-86
2022/12/18 08:52:50;;;;;;;3.50;1.42;;;;;;;1.93;55.22;101869.50;4307990;33;32873;-86
2022/12/18 08:55:18;;;;;;;0.98;0.73;;;;;;;2.10;54.82;101875.16;4338268;32;34362;-86
2022/12/18 08:57:50;;;;;;;4.00;3.10;;;;;;;2.14;54.62;101872.66;4331203;33;34256;-86
2022/12/18 09:00:27;;;;;;;4.37;3.05;;;;;;;2.42;53.55;101874.19;4333394;33;32375;-87
2022/12/18 09:02:57;;;;;;;5.32;4.78;;;;;;;2.44;53.46;101876.81;4321601;33;34601;-86
2022/12/18 09:05:30;;;;;;;0.95;0.95;;;;;;;2.66;51.75;101879.06;4323278;33;32881;-86
2022/12/18 09:07:59;;;;;;;1.58;1.55;;;;;;;2.78;51.70;101897.56;4313905;33;33089;-86
2022/12/18 09:10:29;;;;;;;0.73;0.73;;;;;;;2.41;52.75;101887.16;4326038;33;33775;-82
2022/12/18 09:13:11;;;;;;;;;;;;;;;2.61;52.13;101895.44;4322639;33;34578;-83
2022/12/18 09:15:46;;;;;;;10.05;3.85;;;;;;;2.47;52.42;101889.91;4320031;33;33393;-84
2022/12/18 09:18:20;;;;;;;5.28;4.80;;;;;;;2.76;52.16;101901.88;4313420;33;31969;-83
2022/12/18 09:20:52;;;;;;;4.12;2.90;;;;;;;3.06;50.60;101904.25;4324538;33;32386;-83
2022/12/18 09:23:23;;;;;;;3.35;3.05;;;;;;;3.38;48.46;101890.09;4324003;33;33774;-85
2022/12/18 09:26:00;;;;;;;0.87;0.83;;;;;;;3.34;49.38;101892.62;4329859;33;33098;-86
2022/12/18 09:28:34;;;;;;;1.50;1.50;;;;;;;3.53;49.23;101890.38;4344896;32;33318;-86
2022/12/18 09:31:07;;;;;;;0.77;0.55;;;;;;;3.38;49.42;101890.09;4331553;33;35030;-86
2022/12/18 09:33:36;;;;;;;4.57;2.75;;;;;;;3.56;48.97;101885.19;4331005;33;33605;-86
2022/12/18 09:36:09;;;;;;;9.57;2.10;;;;;;;3.49;49.00;101889.41;4334029;33;33272;-86
2022/12/18 09:38:43;;;;;;;3.25;2.12;;;;;;;3.20;49.90;101888.00;4332412;33;34837;-86
2022/12/18 09:41:42;;;;;;;1.27;1.20;;;;;;;2.98;51.55;101886.66;4327727;33;34249;-86
2022/12/18 09:44:27;;;;;;;2.90;1.80;;;;;;;3.41;50.40;101885.78;4333131;33;32319;-86
2022/12/18 09:47:08;;;;;;;4.12;3.65;;;;;;;3.98;48.50;101881.56;4323038;33;33110;-86
2022/12/18 09:49:45;;;;;;;2.25;2.15;;;;;;;3.72;50.19;101888.97;4309383;33;34203;-86
2022/12/18 09:55:36;;;;;;;4.55;4.18;;;;;;;4.08;48.31;101884.37;4313005;33;34145;-86
2022/12/18 09:58:17;;;;;;;1.37;1.33;;;;;;;3.96;49.05;101886.78;4316900;33;33824;-86
2022/12/18 10:00:45;;;;;;;0.62;0.62;;;;;;;4.49;47.30;101884.09;4328885;33;33904;-86
2022/12/18 10:03:18;;;;;;;1.75;1.65;;;;;;;4.44;47.66;101875.31;4337851;33;33547;-86
2022/12/18 10:06:14;;;;;;;4.72;3.45;;;;;;;4.57;47.27;101882.50;4317828;33;33780;-86
2022/12/18 10:08:58;;;;;;;4.95;1.42;;;;;;;4.33;48.12;101883.00;4339262;32;34692;-86
2022/12/18 10:11:51;;;;;;;3.05;2.83;;;;;;;4.47;47.70;101890.19;4339136;32;34164;-86
2022/12/18 10:14:57;;;;;;;1.25;1.17;;;;;;;4.86;46.52;101880.25;4315365;33;33437;-86
2022/12/18 10:17:43;;;;;;;3.28;3.08;;;;;;;4.52;48.03;101883.28;4332502;33;33164;-86
2022/12/18 10:20:34;;;;;;;1.60;1.58;;;;;;;4.42;47.83;101886.63;4331986;33;32900;-87
2022/12/18 10:23:16;;;;;;;2.30;1.62;;;;;;;4.36;47.32;101883.03;4317517;33;33143;-88
2022/12/18 10:25:59;;;;;;;0.52;0.52;;;;;;;5.05;45.96;101883.12;4324576;33;33125;-87
2022/12/18 10:28:37;;;;;;;4.78;2.62;;;;;;;5.04;45.80;101865.66;4310986;33;34633;-87
2022/12/18 10:31:18;;;;;;;1.77;1.67;;;;;;;5.21;45.12;101871.06;4324567;33;32065;-88
2022/12/18 10:33:55;;;;;;;2.53;2.35;;;;;;;4.94;46.98;101871.59;4323216;33;33650;-88
2022/12/18 10:36:29;;;;;;;2.55;2.17;;;;;;;5.32;44.50;101869.47;4308674;33;33850;-87
2022/12/18 10:39:27;;;;;;;2.87;1.55;;;;;;;5.33;44.09;101869.47;4343364;32;32981;-87
2022/12/18 10:42:19;;;;;;;1.25;1.25;;;;;;;5.26;43.67;101865.00;4329944;33;34286;-87
2022/12/18 10:45:08;;;;;;;2.00;1.90;;;;;;;5.70;43.41;101866.31;4335834;33;32541;-88
2022/12/18 10:47:52;;;;;;;3.58;2.67;;;;;;;6.13;42.44;101862.38;4326034;33;33899;-87
2022/12/18 10:50:30;;;;;;;2.92;2.70;;;;;;;5.72;43.69;101868.09;4348167;32;33134;-87
2022/12/18 10:53:31;;;;;;;3.53;3.30;;;;;;;5.94;42.29;101871.84;4314802;33;35804;-87
2022/12/18 10:56:10;;;;;;;2.12;2.00;;;;;;;5.50;43.74;101869.62;4330266;33;33611;-85
2022/12/18 10:58:39;;;;;;;1.67;1.58;;;;;;;5.96;43.65;101871.84;4325985;33;34226;-85
2022/12/18 11:01:15;;;;;;;2.92;1.87;;;;;;;6.14;43.41;101865.00;4332467;33;33481;-86
2022/12/18 11:04:00;;;;;;;1.95;1.85;;;;;;;6.16;44.33;101868.50;4331654;33;32067;-86
2022/12/18 11:06:30;;;;;;;2.60;2.33;;;;;;;6.05;44.42;101859.69;4331661;33;34277;-85
2022/12/18 11:09:22;;;;;;;4.95;1.60;;;;;;;6.01;44.08;101855.28;4330877;33;32280;-85
2022/12/18 11:12:00;;;;;;;1.92;1.75;;;;;;;6.48;43.08;101844.22;4326172;33;33619;-86
2022/12/18 11:14:36;;;;;;;1.80;1.70;;;;;;;6.23;43.90;101847.59;4343863;32;33050;-86
2022/12/18 11:17:24;;;;;;;;;;;;;;;6.11;44.57;101850.97;4313681;33;33872;-86
2022/12/18 11:19:58;;;;;;;1.58;1.48;;;;;;;6.20;43.94;101848.44;4341218;32;32524;-86
2022/12/18 11:22:30;;;;;;;1.40;1.33;;;;;;;6.32;44.75;101853.78;4318024;33;33685;-86
2022/12/18 11:25:01;;;;;;;2.25;2.10;;;;;;;6.38;43.52;101843.31;4335324;33;32702;-86
2022/12/18 11:28:01;;;;;;;1.17;1.10;;;;;;;6.26;43.11;101843.22;4333999;33;34133;-86
2022/12/18 11:30:41;;;;;;;4.10;3.80;;;;;;;6.42;42.19;101846.84;4329049;33;32011;-86
2022/12/18 11:33:21;;;;;;;4.22;3.03;;;;;;;6.21;41.85;101844.94;4334780;33;32642;-85
2022/12/18 11:35:54;;;;;;;2.35;1.25;;;;;;;6.23;41.91;101843.22;4332022;33;32473;-85
2022/12/18 11:38:28;;;;;;;6.28;2.50;;;;;;;5.90;40.40;101846.44;4335014;33;32736;-86
2022/12/18 11:44:42;;;;;;;2.35;2.20;;;;;;;6.24;40.36;101830.97;4323499;33;35530;-85
2022/12/18 11:47:18;;;;;;;1.55;1.48;;;;;;;6.43;40.25;101845.09;4343833;32;32770;-86
2022/12/18 11:49:50;;;;;;;0.55;0.55;;;;;;;6.06;42.08;101829.09;4336685;33;33040;-85
2022/12/18 11:52:27;;;;;;;1.08;1.08;;;;;;;6.19;41.81;101835.31;4325233;33;33322;-86
2022/12/18 11:55:04;;;;;;;6.75;1.85;;;;;;;6.26;41.50;101827.47;4331577;33;32337;-85
2022/12/18 11:57:41;;;;;;;4.35;2.40;;;;;;;6.56;40.20;101831.16;4333338;33;33135;-85
2022/12/18 12:00:18;;;;;;;4.00;3.10;;;;;;;6.36;40.19;101829.31;4344047;32;34288;-85
2022/12/18 12:03:05;;;;;;;0.20;0.20;;;;;;;6.09;41.24;101834.38;4336792;33;32401;-86
2022/12/18 12:05:56;;;;;;;4.28;2.53;;;;;;;6.12;41.20;101824.78;4316330;33;33371;-85
2022/12/18 12:08:49;;;;;;;6.70;3.15;;;;;;;5.90;41.18;101825.44;4335532;33;33989;-85
2022/12/18 12:11:39;;;;;;;1.05;0.98;;;;;;;5.71;41.46;101816.56;4336040;33;32580;-85
2022/12/18 12:14:37;;;;;;;1.90;1.80;;;;;;;6.24;39.56;101821.34;4335197;33;32509;-85
2022/12/18 12:17:23;;;;;;;2.65;1.55;;;;;;;6.37;38.35;101824.94;4333060;33;34420;-86
2022/12/18 12:23:09;;;;;;;2.15;2.05;;;;;;;5.80;40.21;101827.13;4330000;33;34897;-88
2022/12/18 12:28:51;;;;;;;1.42;1.35;;;;;;;5.81;39.31;101820.13;4333962;33;34118;-88
2022/12/18 12:31:45;;;;;;;0.80;0.80;;;;;;;6.08;37.73;101819.50;4323967;33;33208;-87
2022/12/18 12:34:21;;;;;;;3.45;1.75;;;;;;;6.31;37.55;101825.75;4317791;33;34518;-87
2022/12/18 12:36:52;;;;;;;0.75;0.75;;;;;;;6.20;38.93;101830.06;4329891;33;33136;-87
2022/12/18 12:39:28;;;;;;;1.67;1.57;;;;;;;6.08;38.63;101823.00;4335881;33;33815;-87
2022/12/18 12:44:58;;;;;;;2.72;1.50;;;;;;;6.50;38.99;101816.25;4324849;33;34469;-87
2022/12/18 12:47:33;;;;;;;1.02;1.00;;;;;;;6.67;37.60;101818.97;4335807;33;33500;-87
2022/12/18 12:50:06;;;;;;;2.70;2.50;;;;;;;6.82;37.29;101824.28;4322020;33;33525;-87
2022/12/18 12:52:46;;;;;;;0.90;0.90;;;;;;;6.19;40.32;101830.94;4322853;33;33325;-90
2022/12/18 12:55:23;;;;;;;2.28;2.08;;;;;;;6.37;39.97;101843.31;4321446;33;33214;-89
2022/12/18 12:57:59;;;;;;;0.28;0.28;;;;;;;6.45;40.59;101851.19;4335577;33;34344;-90
2022/12/18 13:00:39;;;;;;;1.58;1.48;;;;;;;6.33;41.24;101850.28;4343742;32;32863;-89
2022/12/18 13:03:15;;;;;;;1.90;1.33;;;;;;;6.49;40.09;101855.59;4346136;32;33402;-90
2022/12/18 13:06:00;;;;;;;1.15;1.05;;;;;;;6.48;40.44;101856.47;4314364;33;33707;-89
2022/12/18 13:08:55;;;;;;;2.72;2.53;;;;;;;6.49;40.93;101845.09;4331887;33;32258;-89
2022/12/18 13:14:35;;;;;;;0.73;0.73;;;;;;;6.29;40.95;101864.22;4301852;33;32814;-89